sensor_id;sensor_type;location;lat;lon;timestamp;temperature;humidity
5705;DHT22;2877;48.238;11.160;2023-11-21T00:00:13;6.30;99.90
5705;DHT22;2877;48.238;11.160;2023-11-21T00:02:39;6.40;99.90
5705;DHT22;2877;48.238;11.160;2023-11-21T00:05:08;6.40;99.90
5705;DHT22;2877;48.238;11.160;2023-11-21T00:07:35;6.40;99.90
5705;DHT22;2877;48.238;11.160;2023-11-21T00:10:01;6.40;99.90
5705;DHT22;2877;48.238;11.160;2023-11-21T00:12:26;6.40;99.90
5705;DHT22;2877;48.238;11.160;2023-11-21T00:14:53;6.40;99.90
5705;DHT22;2877;48.238;11.160;2023-11-21T00:17:18;6.40;99.90
5705;DHT22;2877;48.238;11.160;2023-11-21T00:19:44;6.50;99.90
5705;DHT22;2877;48.238;11.160;2023-11-21T00:22:09;6.50;99.90
5705;DHT22;2877;48.238;11.160;2023-11-21T00:24:35;6.50;99.90
5705;DHT22;2877;48.238;11.160;2023-11-21T00:27:01;6.50;99.90
5705;DHT22;2877;48.238;11.160;2023-11-21T00:29:26;6.60;99.90
5705;DHT22;2877;48.238;11.160;2023-11-21T00:31:52;6.60;99.90
5705;DHT22;2877;48.238;11.160;2023-11-21T00:34:18;6.60;99.90
5705;DHT22;2877;48.238;11.160;2023-11-21T00:36:43;6.70;99.90
5705;DHT22;2877;48.238;11.160;2023-11-21T00:39:09;6.70;99.90
5705;DHT22;2877;48.238;11.160;2023-11-21T00:41:34;6.70;99.90
5705;DHT22;2877;48.238;11.160;2023-11-21T00:44:01;6.70;99.90
5705;DHT22;2877;48.238;11.160;2023-11-21T00:46:27;6.80;99.90
5705;DHT22;2877;48.238;11.160;2023-11-21T00:48:54;6.80;99.90
5705;DHT22;2877;48.238;11.160;2023-11-21T00:51:20;6.80;99.90
5705;DHT22;2877;48.238;11.160;2023-11-21T00:53:47;6.80;99.90
5705;DHT22;2877;48.238;11.160;2023-11-21T00:56:13;6.80;99.90
5705;DHT22;2877;48.238;11.160;2023-11-21T00:58:39;6.70;99.90
5705;DHT22;2877;48.238;11.160;2023-11-21T01:01:04;6.80;99.90
5705;DHT22;2877;48.238;11.160;2023-11-21T01:03:30;6.70;99.90
5705;DHT22;2877;48.238;11.160;2023-11-21T01:05:55;6.70;99.90
5705;DHT22;2877;48.238;11.160;2023-11-21T01:08:21;6.70;99.90
5705;DHT22;2877;48.238;11.160;2023-11-21T01:10:47;6.70;99.90
5705;DHT22;2877;48.238;11.160;2023-11-21T01:13:13;6.70;99.90
5705;DHT22;2877;48.238;11.160;2023-11-21T01:15:40;6.70;99.90
5705;DHT22;2877;48.238;11.160;2023-11-21T01:18:07;6.70;99.90
5705;DHT22;2877;48.238;11.160;2023-11-21T01:20:34;6.70;99.90
5705;DHT22;2877;48.238;11.160;2023-11-21T01:22:59;6.70;99.90
5705;DHT22;2877;48.238;11.160;2023-11-21T01:25:25;6.70;99.90
5705;DHT22;2877;48.238;11.160;2023-11-21T01:27:51;6.70;99.90
5705;DHT22;2877;48.238;11.160;2023-11-21T01:30:17;6.70;99.90
5705;DHT22;2877;48.238;11.160;2023-11-21T01:32:42;6.70;99.90
5705;DHT22;2877;48.238;11.160;2023-11-21T01:35:09;6.70;99.90
5705;DHT22;2877;48.238;11.160;2023-11-21T01:37:36;6.60;99.90
5705;DHT22;2877;48.238;11.160;2023-11-21T01:40:01;6.60;99.90
5705;DHT22;2877;48.238;11.160;2023-11-21T01:42:27;6.60;99.90
5705;DHT22;2877;48.238;11.160;2023-11-21T01:44:54;6.60;99.90
5705;DHT22;2877;48.238;11.160;2023-11-21T01:47:20;6.50;99.90
5705;DHT22;2877;48.238;11.160;2023-11-21T01:49:46;6.50;99.90
5705;DHT22;2877;48.238;11.160;2023-11-21T01:52:13;6.40;99.90
5705;DHT22;2877;48.238;11.160;2023-11-21T01:54:38;6.30;99.90
5705;DHT22;2877;48.238;11.160;2023-11-21T01:57:05;6.20;99.90
5705;DHT22;2877;48.238;11.160;2023-11-21T01:59:36;6.20;99.90
5705;DHT22;2877;48.238;11.160;2023-11-21T02:02:03;6.10;99.90
5705;DHT22;2877;48.238;11.160;2023-11-21T02:04:35;6.10;99.90
5705;DHT22;2877;48.238;11.160;2023-11-21T02:07:02;6.10;99.90
5705;DHT22;2877;48.238;11.160;2023-11-21T02:09:31;6.00;99.90
5705;DHT22;2877;48.238;11.160;2023-11-21T02:12:00;6.00;99.90
5705;DHT22;2877;48.238;11.160;2023-11-21T02:14:27;6.00;99.90
5705;DHT22;2877;48.238;11.160;2023-11-21T02:16:54;6.00;99.90
5705;DHT22;2877;48.238;11.160;2023-11-21T02:19:21;6.00;99.90
5705;DHT22;2877;48.238;11.160;2023-11-21T02:21:50;6.10;99.90
5705;DHT22;2877;48.238;11.160;2023-11-21T02:24:20;6.00;99.90
5705;DHT22;2877;48.238;11.160;2023-11-21T02:26:47;6.10;99.90
5705;DHT22;2877;48.238;11.160;2023-11-21T02:29:12;6.00;99.90
5705;DHT22;2877;48.238;11.160;2023-11-21T02:31:39;6.00;99.90
5705;DHT22;2877;48.238;11.160;2023-11-21T02:34:16;6.00;99.90
5705;DHT22;2877;48.238;11.160;2023-11-21T02:36:43;6.00;99.90
5705;DHT22;2877;48.238;11.160;2023-11-21T02:39:10;6.00;99.90
5705;DHT22;2877;48.238;11.160;2023-11-21T02:41:39;6.00;99.90
5705;DHT22;2877;48.238;11.160;2023-11-21T02:44:06;5.90;99.90
5705;DHT22;2877;48.238;11.160;2023-11-21T02:46:32;6.00;99.90
5705;DHT22;2877;48.238;11.160;2023-11-21T02:49:00;6.00;99.90
5705;DHT22;2877;48.238;11.160;2023-11-21T02:51:25;6.00;99.90
5705;DHT22;2877;48.238;11.160;2023-11-21T02:53:51;5.90;99.90
5705;DHT22;2877;48.238;11.160;2023-11-21T02:56:17;5.90;99.90
5705;DHT22;2877;48.238;11.160;2023-11-21T02:58:43;5.90;99.90
5705;DHT22;2877;48.238;11.160;2023-11-21T03:01:10;5.90;99.90
5705;DHT22;2877;48.238;11.160;2023-11-21T03:03:39;5.90;99.90
5705;DHT22;2877;48.238;11.160;2023-11-21T03:06:06;6.00;99.90
5705;DHT22;2877;48.238;11.160;2023-11-21T03:08:31;6.00;99.90
5705;DHT22;2877;48.238;11.160;2023-11-21T03:10:57;6.00;99.90
5705;DHT22;2877;48.238;11.160;2023-11-21T03:13:23;6.00;99.90
5705;DHT22;2877;48.238;11.160;2023-11-21T03:15:49;6.00;99.90
5705;DHT22;2877;48.238;11.160;2023-11-21T03:18:15;6.00;99.90
5705;DHT22;2877;48.238;11.160;2023-11-21T03:20:40;6.00;99.90
5705;DHT22;2877;48.238;11.160;2023-11-21T03:23:06;6.00;99.90
5705;DHT22;2877;48.238;11.160;2023-11-21T03:25:32;6.00;99.90
5705;DHT22;2877;48.238;11.160;2023-11-21T03:27:57;6.00;99.90
5705;DHT22;2877;48.238;11.160;2023-11-21T03:30:23;5.90;99.90
5705;DHT22;2877;48.238;11.160;2023-11-21T03:32:49;5.90;99.90
5705;DHT22;2877;48.238;11.160;2023-11-21T03:35:14;5.90;99.90
5705;DHT22;2877;48.238;11.160;2023-11-21T03:37:40;5.90;99.90
5705;DHT22;2877;48.238;11.160;2023-11-21T03:40:07;5.90;99.90
5705;DHT22;2877;48.238;11.160;2023-11-21T03:42:34;5.90;99.90
5705;DHT22;2877;48.238;11.160;2023-11-21T03:45:00;6.00;99.90
5705;DHT22;2877;48.238;11.160;2023-11-21T03:47:27;5.90;99.90
5705;DHT22;2877;48.238;11.160;2023-11-21T03:49:53;6.00;99.90
5705;DHT22;2877;48.238;11.160;2023-11-21T03:52:18;6.00;99.90
5705;DHT22;2877;48.238;11.160;2023-11-21T03:54:44;6.00;99.90
5705;DHT22;2877;48.238;11.160;2023-11-21T03:57:10;6.00;99.90
5705;DHT22;2877;48.238;11.160;2023-11-21T03:59:35;6.00;99.90
5705;DHT22;2877;48.238;11.160;2023-11-21T04:02:01;6.00;99.90
5705;DHT22;2877;48.238;11.160;2023-11-21T04:04:26;6.00;99.90
5705;DHT22;2877;48.238;11.160;2023-11-21T04:06:52;6.00;99.90
5705;DHT22;2877;48.238;11.160;2023-11-21T04:09:17;6.10;99.90
5705;DHT22;2877;48.238;11.160;2023-11-21T04:11:43;6.10;99.90
5705;DHT22;2877;48.238;11.160;2023-11-21T04:14:10;6.10;99.90
5705;DHT22;2877;48.238;11.160;2023-11-21T04:16:36;6.10;99.90
5705;DHT22;2877;48.238;11.160;2023-11-21T04:19:02;6.10;99.90
5705;DHT22;2877;48.238;11.160;2023-11-21T04:21:27;6.10;99.90
5705;DHT22;2877;48.238;11.160;2023-11-21T04:23:53;6.10;99.90
5705;DHT22;2877;48.238;11.160;2023-11-21T04:26:18;6.10;99.90
5705;DHT22;2877;48.238;11.160;2023-11-21T04:28:44;6.10;99.90
5705;DHT22;2877;48.238;11.160;2023-11-21T04:31:10;6.00;99.90
5705;DHT22;2877;48.238;11.160;2023-11-21T04:33:35;6.00;99.90
5705;DHT22;2877;48.238;11.160;2023-11-21T04:36:01;6.00;99.90
5705;DHT22;2877;48.238;11.160;2023-11-21T04:38:27;6.00;99.90
5705;DHT22;2877;48.238;11.160;2023-11-21T04:40:52;5.90;99.90
5705;DHT22;2877;48.238;11.160;2023-11-21T04:43:18;5.90;99.90
5705;DHT22;2877;48.238;11.160;2023-11-21T04:45:43;5.90;99.90
5705;DHT22;2877;48.238;11.160;2023-11-21T04:48:09;5.80;99.90
5705;DHT22;2877;48.238;11.160;2023-11-21T04:50:35;5.80;99.90
5705;DHT22;2877;48.238;11.160;2023-11-21T04:53:00;5.80;99.90
5705;DHT22;2877;48.238;11.160;2023-11-21T04:55:26;5.80;99.90
5705;DHT22;2877;48.238;11.160;2023-11-21T04:57:53;5.80;99.90
5705;DHT22;2877;48.238;11.160;2023-11-21T05:00:19;5.80;99.90
5705;DHT22;2877;48.238;11.160;2023-11-21T05:02:46;5.80;99.90
5705;DHT22;2877;48.238;11.160;2023-11-21T05:05:12;5.70;99.90
5705;DHT22;2877;48.238;11.160;2023-11-21T05:07:39;5.70;99.90
5705;DHT22;2877;48.238;11.160;2023-11-21T05:10:06;5.70;99.90
5705;DHT22;2877;48.238;11.160;2023-11-21T05:12:35;5.80;99.90
5705;DHT22;2877;48.238;11.160;2023-11-21T05:15:05;5.70;99.90
5705;DHT22;2877;48.238;11.160;2023-11-21T05:17:40;5.70;99.90
5705;DHT22;2877;48.238;11.160;2023-11-21T05:20:15;5.70;99.90
5705;DHT22;2877;48.238;11.160;2023-11-21T05:22:45;5.70;99.90
5705;DHT22;2877;48.238;11.160;2023-11-21T05:25:11;5.70;99.90
5705;DHT22;2877;48.238;11.160;2023-11-21T05:27:37;5.70;99.90
5705;DHT22;2877;48.238;11.160;2023-11-21T05:30:04;5.70;99.90
5705;DHT22;2877;48.238;11.160;2023-11-21T05:32:40;5.60;99.90
5705;DHT22;2877;48.238;11.160;2023-11-21T05:35:08;5.60;99.90
5705;DHT22;2877;48.238;11.160;2023-11-21T05:37:37;5.60;99.90
5705;DHT22;2877;48.238;11.160;2023-11-21T05:40:06;5.60;99.90
5705;DHT22;2877;48.238;11.160;2023-11-21T05:42:33;5.60;99.90
5705;DHT22;2877;48.238;11.160;2023-11-21T05:44:59;5.50;99.90
5705;DHT22;2877;48.238;11.160;2023-11-21T05:47:25;5.50;99.90
5705;DHT22;2877;48.238;11.160;2023-11-21T05:49:51;5.50;99.90
5705;DHT22;2877;48.238;11.160;2023-11-21T05:52:17;5.40;99.90
5705;DHT22;2877;48.238;11.160;2023-11-21T05:54:43;5.40;99.90
5705;DHT22;2877;48.238;11.160;2023-11-21T05:57:09;5.40;99.90
5705;DHT22;2877;48.238;11.160;2023-11-21T05:59:34;5.30;99.90
5705;DHT22;2877;48.238;11.160;2023-11-21T06:02:00;5.30;99.90
5705;DHT22;2877;48.238;11.160;2023-11-21T06:04:25;5.30;99.90
5705;DHT22;2877;48.238;11.160;2023-11-21T06:06:52;5.30;99.90
5705;DHT22;2877;48.238;11.160;2023-11-21T06:09:18;5.20;99.90
5705;DHT22;2877;48.238;11.160;2023-11-21T06:11:43;5.20;99.90
5705;DHT22;2877;48.238;11.160;2023-11-21T06:14:09;5.10;99.90
5705;DHT22;2877;48.238;11.160;2023-11-21T06:16:36;5.10;99.90
5705;DHT22;2877;48.238;11.160;2023-11-21T06:19:01;5.10;99.90
5705;DHT22;2877;48.238;11.160;2023-11-21T06:21:27;5.10;99.90
5705;DHT22;2877;48.238;11.160;2023-11-21T06:23:52;5.20;99.90
5705;DHT22;2877;48.238;11.160;2023-11-21T06:26:18;5.20;99.90
5705;DHT22;2877;48.238;11.160;2023-11-21T06:28:44;5.20;99.90
5705;DHT22;2877;48.238;11.160;2023-11-21T06:31:10;5.20;99.90
5705;DHT22;2877;48.238;11.160;2023-11-21T06:33:36;5.20;99.90
5705;DHT22;2877;48.238;11.160;2023-11-21T06:36:02;5.10;99.90
5705;DHT22;2877;48.238;11.160;2023-11-21T06:38:31;5.10;99.90
5705;DHT22;2877;48.238;11.160;2023-11-21T06:40:57;5.10;99.90
5705;DHT22;2877;48.238;11.160;2023-11-21T06:43:23;5.00;99.90
5705;DHT22;2877;48.238;11.160;2023-11-21T06:45:49;5.00;99.90
5705;DHT22;2877;48.238;11.160;2023-11-21T06:48:14;5.00;99.90
5705;DHT22;2877;48.238;11.160;2023-11-21T06:50:40;5.10;99.90
5705;DHT22;2877;48.238;11.160;2023-11-21T06:53:07;5.10;99.90
5705;DHT22;2877;48.238;11.160;2023-11-21T06:55:33;5.10;99.90
5705;DHT22;2877;48.238;11.160;2023-11-21T06:57:59;5.00;99.90
5705;DHT22;2877;48.238;11.160;2023-11-21T07:00:25;5.00;99.90
5705;DHT22;2877;48.238;11.160;2023-11-21T07:02:53;5.00;99.90
5705;DHT22;2877;48.238;11.160;2023-11-21T07:05:20;5.00;99.90
5705;DHT22;2877;48.238;11.160;2023-11-21T07:07:47;5.00;99.90
5705;DHT22;2877;48.238;11.160;2023-11-21T07:10:13;4.90;99.90
5705;DHT22;2877;48.238;11.160;2023-11-21T07:12:39;5.00;99.90
5705;DHT22;2877;48.238;11.160;2023-11-21T07:15:06;5.00;99.90
5705;DHT22;2877;48.238;11.160;2023-11-21T07:17:34;5.00;99.90
5705;DHT22;2877;48.238;11.160;2023-11-21T07:20:01;5.00;99.90
5705;DHT22;2877;48.238;11.160;2023-11-21T07:22:26;5.00;99.90
5705;DHT22;2877;48.238;11.160;2023-11-21T07:24:52;5.00;99.90
5705;DHT22;2877;48.238;11.160;2023-11-21T07:27:17;5.00;99.90
5705;DHT22;2877;48.238;11.160;2023-11-21T07:29:43;5.00;99.90
5705;DHT22;2877;48.238;11.160;2023-11-21T07:32:09;5.00;99.90
5705;DHT22;2877;48.238;11.160;2023-11-21T07:34:35;5.00;99.90
5705;DHT22;2877;48.238;11.160;2023-11-21T07:37:01;5.10;99.90
5705;DHT22;2877;48.238;11.160;2023-11-21T07:39:27;5.10;99.90
5705;DHT22;2877;48.238;11.160;2023-11-21T07:41:52;5.30;99.90
5705;DHT22;2877;48.238;11.160;2023-11-21T07:44:18;5.40;99.90
5705;DHT22;2877;48.238;11.160;2023-11-21T07:46:45;5.50;99.90
5705;DHT22;2877;48.238;11.160;2023-11-21T07:49:11;5.60;99.90
5705;DHT22;2877;48.238;11.160;2023-11-21T07:51:36;5.70;99.90
5705;DHT22;2877;48.238;11.160;2023-11-21T07:54:02;5.90;99.90
5705;DHT22;2877;48.238;11.160;2023-11-21T07:56:27;6.00;99.90
5705;DHT22;2877;48.238;11.160;2023-11-21T07:58:53;6.10;99.90
5705;DHT22;2877;48.238;11.160;2023-11-21T08:01:19;6.20;99.90
5705;DHT22;2877;48.238;11.160;2023-11-21T08:03:44;6.20;99.90
5705;DHT22;2877;48.238;11.160;2023-11-21T08:06:10;6.30;99.90
5705;DHT22;2877;48.238;11.160;2023-11-21T08:08:35;6.30;99.90
5705;DHT22;2877;48.238;11.160;2023-11-21T08:11:01;6.40;99.90
5705;DHT22;2877;48.238;11.160;2023-11-21T08:13:28;6.40;99.90
5705;DHT22;2877;48.238;11.160;2023-11-21T08:15:54;6.40;99.90
5705;DHT22;2877;48.238;11.160;2023-11-21T08:18:20;6.50;99.90
5705;DHT22;2877;48.238;11.160;2023-11-21T08:20:45;6.50;99.90
5705;DHT22;2877;48.238;11.160;2023-11-21T08:23:15;6.60;99.90
5705;DHT22;2877;48.238;11.160;2023-11-21T08:25:45;6.60;99.90
5705;DHT22;2877;48.238;11.160;2023-11-21T08:28:11;6.70;99.90
5705;DHT22;2877;48.238;11.160;2023-11-21T08:30:37;6.80;99.90
5705;DHT22;2877;48.238;11.160;2023-11-21T08:33:03;6.80;99.90
5705;DHT22;2877;48.238;11.160;2023-11-21T08:35:29;6.80;99.90
5705;DHT22;2877;48.238;11.160;2023-11-21T08:37:55;6.90;99.90
5705;DHT22;2877;48.238;11.160;2023-11-21T08:40:21;7.00;99.90
5705;DHT22;2877;48.238;11.160;2023-11-21T08:42:47;7.00;99.90
5705;DHT22;2877;48.238;11.160;2023-11-21T08:45:16;7.10;99.90
5705;DHT22;2877;48.238;11.160;2023-11-21T08:47:43;7.10;99.90
5705;DHT22;2877;48.238;11.160;2023-11-21T08:50:09;7.10;99.90
5705;DHT22;2877;48.238;11.160;2023-11-21T08:52:37;7.10;99.90
5705;DHT22;2877;48.238;11.160;2023-11-21T08:55:04;7.20;99.90
5705;DHT22;2877;48.238;11.160;2023-11-21T08:57:37;7.20;99.90
5705;DHT22;2877;48.238;11.160;2023-11-21T09:00:07;7.30;99.90
5705;DHT22;2877;48.238;11.160;2023-11-21T09:02:43;7.30;99.90
5705;DHT22;2877;48.238;11.160;2023-11-21T09:05:10;7.20;99.90
5705;DHT22;2877;48.238;11.160;2023-11-21T09:07:36;7.20;99.90
5705;DHT22;2877;48.238;11.160;2023-11-21T09:10:05;7.20;99.90
5705;DHT22;2877;48.238;11.160;2023-11-21T09:12:35;7.30;99.90
5705;DHT22;2877;48.238;11.160;2023-11-21T09:15:05;7.30;99.90
5705;DHT22;2877;48.238;11.160;2023-11-21T09:17:32;7.30;99.90
5705;DHT22;2877;48.238;11.160;2023-11-21T09:19:59;7.30;99.90
5705;DHT22;2877;48.238;11.160;2023-11-21T09:22:25;7.40;99.90
5705;DHT22;2877;48.238;11.160;2023-11-21T09:24:53;7.50;99.90
5705;DHT22;2877;48.238;11.160;2023-11-21T09:27:19;7.60;99.90
5705;DHT22;2877;48.238;11.160;2023-11-21T09:29:45;7.60;99.90
5705;DHT22;2877;48.238;11.160;2023-11-21T09:32:13;7.60;99.90
5705;DHT22;2877;48.238;11.160;2023-11-21T09:34:39;7.50;99.90
5705;DHT22;2877;48.238;11.160;2023-11-21T09:37:06;7.60;99.90
5705;DHT22;2877;48.238;11.160;2023-11-21T09:39:32;7.50;99.90
5705;DHT22;2877;48.238;11.160;2023-11-21T09:42:12;7.50;99.90
5705;DHT22;2877;48.238;11.160;2023-11-21T09:45:15;7.40;99.90
5705;DHT22;2877;48.238;11.160;2023-11-21T09:47:43;7.40;99.90
5705;DHT22;2877;48.238;11.160;2023-11-21T09:50:09;7.40;99.90
5705;DHT22;2877;48.238;11.160;2023-11-21T09:53:03;7.40;99.90
5705;DHT22;2877;48.238;11.160;2023-11-21T09:55:34;7.40;99.90
5705;DHT22;2877;48.238;11.160;2023-11-21T09:58:03;7.30;99.90
5705;DHT22;2877;48.238;11.160;2023-11-21T10:00:30;7.30;99.90
5705;DHT22;2877;48.238;11.160;2023-11-21T10:02:58;7.20;99.90
5705;DHT22;2877;48.238;11.160;2023-11-21T10:05:24;7.30;99.90
5705;DHT22;2877;48.238;11.160;2023-11-21T10:07:50;7.40;99.90
5705;DHT22;2877;48.238;11.160;2023-11-21T10:10:18;7.50;99.90
5705;DHT22;2877;48.238;11.160;2023-11-21T10:12:51;7.50;99.90
5705;DHT22;2877;48.238;11.160;2023-11-21T10:15:22;7.50;99.90
5705;DHT22;2877;48.238;11.160;2023-11-21T10:17:49;7.50;99.90
5705;DHT22;2877;48.238;11.160;2023-11-21T10:20:15;7.50;99.90
5705;DHT22;2877;48.238;11.160;2023-11-21T10:22:42;7.50;99.90
5705;DHT22;2877;48.238;11.160;2023-11-21T10:25:11;7.60;99.90
5705;DHT22;2877;48.238;11.160;2023-11-21T10:27:40;7.70;99.90
5705;DHT22;2877;48.238;11.160;2023-11-21T10:30:07;7.80;99.90
5705;DHT22;2877;48.238;11.160;2023-11-21T10:32:33;7.90;99.90
5705;DHT22;2877;48.238;11.160;2023-11-21T10:34:59;8.00;99.90
5705;DHT22;2877;48.238;11.160;2023-11-21T10:37:34;8.20;99.90
5705;DHT22;2877;48.238;11.160;2023-11-21T10:40:00;8.40;99.90
5705;DHT22;2877;48.238;11.160;2023-11-21T10:42:26;8.30;99.90
5705;DHT22;2877;48.238;11.160;2023-11-21T10:44:53;8.40;99.90
5705;DHT22;2877;48.238;11.160;2023-11-21T10:47:19;8.60;99.90
5705;DHT22;2877;48.238;11.160;2023-11-21T10:49:48;8.60;99.90
5705;DHT22;2877;48.238;11.160;2023-11-21T10:52:14;8.70;99.90
5705;DHT22;2877;48.238;11.160;2023-11-21T10:54:43;8.80;99.90
5705;DHT22;2877;48.238;11.160;2023-11-21T10:57:10;9.00;99.90
5705;DHT22;2877;48.238;11.160;2023-11-21T10:59:36;9.10;99.90
5705;DHT22;2877;48.238;11.160;2023-11-21T11:02:19;9.10;99.90
5705;DHT22;2877;48.238;11.160;2023-11-21T11:04:48;9.00;99.90
5705;DHT22;2877;48.238;11.160;2023-11-21T11:07:15;8.90;99.90
5705;DHT22;2877;48.238;11.160;2023-11-21T11:09:41;9.00;99.90
5705;DHT22;2877;48.238;11.160;2023-11-21T11:12:08;9.10;99.90
5705;DHT22;2877;48.238;11.160;2023-11-21T11:14:35;9.40;99.90
5705;DHT22;2877;48.238;11.160;2023-11-21T11:17:02;9.40;99.90
5705;DHT22;2877;48.238;11.160;2023-11-21T11:19:29;9.40;99.90
5705;DHT22;2877;48.238;11.160;2023-11-21T11:24:54;9.80;99.90
5705;DHT22;2877;48.238;11.160;2023-11-21T11:36:16;9.40;99.90
5705;DHT22;2877;48.238;11.160;2023-11-21T11:38:46;9.40;99.90
5705;DHT22;2877;48.238;11.160;2023-11-21T11:41:11;9.50;99.90
5705;DHT22;2877;48.238;11.160;2023-11-21T11:43:38;9.70;99.90
5705;DHT22;2877;48.238;11.160;2023-11-21T11:46:10;9.70;99.90
5705;DHT22;2877;48.238;11.160;2023-11-21T11:48:39;9.70;99.90
5705;DHT22;2877;48.238;11.160;2023-11-21T11:51:13;9.60;99.90
5705;DHT22;2877;48.238;11.160;2023-11-21T11:53:43;9.70;99.90
5705;DHT22;2877;48.238;11.160;2023-11-21T11:56:25;9.50;99.90
5705;DHT22;2877;48.238;11.160;2023-11-21T11:58:56;9.30;99.90
5705;DHT22;2877;48.238;11.160;2023-11-21T12:01:23;9.10;99.90
5705;DHT22;2877;48.238;11.160;2023-11-21T12:06:42;9.30;99.90
5705;DHT22;2877;48.238;11.160;2023-11-21T12:09:18;9.50;99.90
5705;DHT22;2877;48.238;11.160;2023-11-21T12:11:46;9.60;99.90
5705;DHT22;2877;48.238;11.160;2023-11-21T12:14:12;9.90;99.90
5705;DHT22;2877;48.238;11.160;2023-11-21T12:16:39;9.90;99.90
5705;DHT22;2877;48.238;11.160;2023-11-21T12:19:04;10.00;99.90
5705;DHT22;2877;48.238;11.160;2023-11-21T12:21:30;10.10;99.90
5705;DHT22;2877;48.238;11.160;2023-11-21T12:23:58;9.90;99.90
5705;DHT22;2877;48.238;11.160;2023-11-21T12:26:27;9.70;99.90
5705;DHT22;2877;48.238;11.160;2023-11-21T12:28:53;9.60;99.90
5705;DHT22;2877;48.238;11.160;2023-11-21T12:31:22;9.40;99.90
5705;DHT22;2877;48.238;11.160;2023-11-21T12:33:48;9.30;99.90
5705;DHT22;2877;48.238;11.160;2023-11-21T12:36:13;9.40;99.90
5705;DHT22;2877;48.238;11.160;2023-11-21T12:38:40;9.50;99.90
5705;DHT22;2877;48.238;11.160;2023-11-21T12:41:06;9.60;99.90
5705;DHT22;2877;48.238;11.160;2023-11-21T12:43:35;9.60;99.90
5705;DHT22;2877;48.238;11.160;2023-11-21T12:46:11;9.60;99.90
5705;DHT22;2877;48.238;11.160;2023-11-21T12:48:41;9.80;99.90
5705;DHT22;2877;48.238;11.160;2023-11-21T12:51:08;9.60;99.90
5705;DHT22;2877;48.238;11.160;2023-11-21T12:53:35;9.60;99.90
5705;DHT22;2877;48.238;11.160;2023-11-21T12:56:13;9.50;99.90
5705;DHT22;2877;48.238;11.160;2023-11-21T12:58:40;9.50;99.90
5705;DHT22;2877;48.238;11.160;2023-11-21T13:01:10;9.50;99.90
5705;DHT22;2877;48.238;11.160;2023-11-21T13:03:38;9.50;99.90
5705;DHT22;2877;48.238;11.160;2023-11-21T13:06:06;9.40;99.90
5705;DHT22;2877;48.238;11.160;2023-11-21T13:08:33;9.40;99.90
5705;DHT22;2877;48.238;11.160;2023-11-21T13:10:59;9.50;99.90
5705;DHT22;2877;48.238;11.160;2023-11-21T13:13:28;9.50;99.90
5705;DHT22;2877;48.238;11.160;2023-11-21T13:15:55;9.40;99.90
5705;DHT22;2877;48.238;11.160;2023-11-21T13:18:24;9.40;99.90
5705;DHT22;2877;48.238;11.160;2023-11-21T13:20:56;9.40;99.90
5705;DHT22;2877;48.238;11.160;2023-11-21T13:23:23;9.30;99.90
5705;DHT22;2877;48.238;11.160;2023-11-21T13:25:49;9.30;99.90
5705;DHT22;2877;48.238;11.160;2023-11-21T13:28:15;9.20;99.90
5705;DHT22;2877;48.238;11.160;2023-11-21T13:30:41;9.00;99.90
5705;DHT22;2877;48.238;11.160;2023-11-21T13:33:08;8.70;99.90
5705;DHT22;2877;48.238;11.160;2023-11-21T13:35:35;8.70;99.90
5705;DHT22;2877;48.238;11.160;2023-11-21T13:38:11;8.80;99.90
5705;DHT22;2877;48.238;11.160;2023-11-21T13:40:38;8.90;99.90
5705;DHT22;2877;48.238;11.160;2023-11-21T13:43:13;9.00;99.90
5705;DHT22;2877;48.238;11.160;2023-11-21T13:45:43;9.20;99.90
5705;DHT22;2877;48.238;11.160;2023-11-21T13:48:10;9.20;99.90
5705;DHT22;2877;48.238;11.160;2023-11-21T13:50:36;9.30;99.90
5705;DHT22;2877;48.238;11.160;2023-11-21T13:53:03;9.40;99.90
5705;DHT22;2877;48.238;11.160;2023-11-21T13:55:36;9.40;99.90
5705;DHT22;2877;48.238;11.160;2023-11-21T13:58:02;9.40;99.90
5705;DHT22;2877;48.238;11.160;2023-11-21T14:00:29;9.40;99.90
5705;DHT22;2877;48.238;11.160;2023-11-21T14:03:12;9.50;99.90
5705;DHT22;2877;48.238;11.160;2023-11-21T14:05:48;9.60;99.90
5705;DHT22;2877;48.238;11.160;2023-11-21T14:08:20;9.70;99.90
5705;DHT22;2877;48.238;11.160;2023-11-21T14:10:47;9.80;99.90
5705;DHT22;2877;48.238;11.160;2023-11-21T14:13:26;9.90;99.90
5705;DHT22;2877;48.238;11.160;2023-11-21T14:15:52;10.00;99.90
5705;DHT22;2877;48.238;11.160;2023-11-21T14:18:27;10.00;99.90
5705;DHT22;2877;48.238;11.160;2023-11-21T14:20:58;10.00;99.90
5705;DHT22;2877;48.238;11.160;2023-11-21T14:23:23;9.90;99.90
5705;DHT22;2877;48.238;11.160;2023-11-21T14:25:49;9.80;99.90
5705;DHT22;2877;48.238;11.160;2023-11-21T14:28:16;9.50;99.90
5705;DHT22;2877;48.238;11.160;2023-11-21T14:30:42;9.00;99.90
5705;DHT22;2877;48.238;11.160;2023-11-21T14:33:08;8.60;99.90
5705;DHT22;2877;48.238;11.160;2023-11-21T14:35:35;8.50;99.90
5705;DHT22;2877;48.238;11.160;2023-11-21T14:38:01;8.30;99.90
5705;DHT22;2877;48.238;11.160;2023-11-21T14:40:32;8.10;99.90
5705;DHT22;2877;48.238;11.160;2023-11-21T14:43:02;8.00;99.90
5705;DHT22;2877;48.238;11.160;2023-11-21T14:45:31;7.90;99.90
5705;DHT22;2877;48.238;11.160;2023-11-21T14:47:57;7.80;99.90
5705;DHT22;2877;48.238;11.160;2023-11-21T14:50:44;7.70;99.90
5705;DHT22;2877;48.238;11.160;2023-11-21T14:53:39;7.60;99.90
5705;DHT22;2877;48.238;11.160;2023-11-21T14:56:21;7.60;99.90
5705;DHT22;2877;48.238;11.160;2023-11-21T14:58:55;7.50;99.90
5705;DHT22;2877;48.238;11.160;2023-11-21T15:01:26;7.50;99.90
5705;DHT22;2877;48.238;11.160;2023-11-21T15:04:20;7.40;99.90
5705;DHT22;2877;48.238;11.160;2023-11-21T15:07:01;7.40;99.90
5705;DHT22;2877;48.238;11.160;2023-11-21T15:09:26;7.40;99.90
5705;DHT22;2877;48.238;11.160;2023-11-21T15:11:59;7.40;99.90
5705;DHT22;2877;48.238;11.160;2023-11-21T15:14:42;7.40;99.90
5705;DHT22;2877;48.238;11.160;2023-11-21T15:17:08;7.40;99.90
5705;DHT22;2877;48.238;11.160;2023-11-21T15:19:34;7.40;99.90
5705;DHT22;2877;48.238;11.160;2023-11-21T15:22:01;7.40;99.90
5705;DHT22;2877;48.238;11.160;2023-11-21T15:24:27;7.30;99.90
5705;DHT22;2877;48.238;11.160;2023-11-21T15:26:52;7.30;99.90
5705;DHT22;2877;48.238;11.160;2023-11-21T15:29:18;7.30;99.90
5705;DHT22;2877;48.238;11.160;2023-11-21T15:31:46;7.30;99.90
5705;DHT22;2877;48.238;11.160;2023-11-21T15:34:17;7.30;99.90
5705;DHT22;2877;48.238;11.160;2023-11-21T15:36:42;7.20;99.90
5705;DHT22;2877;48.238;11.160;2023-11-21T15:39:09;7.20;99.90
5705;DHT22;2877;48.238;11.160;2023-11-21T15:41:37;7.20;99.90
5705;DHT22;2877;48.238;11.160;2023-11-21T15:44:04;7.10;99.90
5705;DHT22;2877;48.238;11.160;2023-11-21T15:46:30;7.20;99.90
5705;DHT22;2877;48.238;11.160;2023-11-21T15:48:56;7.10;99.90
5705;DHT22;2877;48.238;11.160;2023-11-21T15:51:22;7.10;99.90
5705;DHT22;2877;48.238;11.160;2023-11-21T15:53:47;7.10;99.90
5705;DHT22;2877;48.238;11.160;2023-11-21T15:56:13;7.10;99.90
5705;DHT22;2877;48.238;11.160;2023-11-21T15:58:39;7.10;99.90
5705;DHT22;2877;48.238;11.160;2023-11-21T16:01:08;7.10;99.90
5705;DHT22;2877;48.238;11.160;2023-11-21T16:03:35;7.10;99.90
5705;DHT22;2877;48.238;11.160;2023-11-21T16:06:01;7.10;99.90
5705;DHT22;2877;48.238;11.160;2023-11-21T16:08:28;7.10;99.90
5705;DHT22;2877;48.238;11.160;2023-11-21T16:10:54;7.10;99.90
5705;DHT22;2877;48.238;11.160;2023-11-21T16:13:20;7.10;99.90
5705;DHT22;2877;48.238;11.160;2023-11-21T16:15:46;7.10;99.90
5705;DHT22;2877;48.238;11.160;2023-11-21T16:18:12;7.10;99.90